Current | Forecast
Updated: 4:30 PM CEST on July 22, 2017
Observed at Vigo, Portugal
Temperature 20°C
Humidity 64%
Dew Point 13°C
Wind West at 17 km/h
Pressure 1020 hPa (Steady)
Conditions Mostly Cloudy
Visibility 10.0 kilometers
UV 6 out of 16
Clouds Mostly Cloudy (BKN) : 853 m
Yesterday's Maximum 21°C
Yesterday's Minimum 12°C approx.
Yesterday's Heating Degree Days 3 approx.
Sunrise6:17 AM WEST
Sunset9:02 PM WEST
Moon Rise5:12 AM WEST
Moon Set8:13 PM WEST
Moon PhaseMoon Phase
Waning Crescent
Raw METARMETAR LEVX 221430Z 28009KT 250V350 9999 BKN028 20/13 Q1020 NOSIG


Monday
. High: 62° F.
Tuesday
. High: 62° F.
Wednesday
. High: 57° F.
Thursday
. High: 64° F.
Friday
. High: 68° F.
Saturday
. High: 64° F.
Sunday
. High: 68° F.
Monday
. High: 77° F.

Units: English | Metric

Find the Weather for any City, State or Zipcode, or Country:

U.S. State List | Severe Weather | Tropical Storms | Ski Conditions
United States | Canada | Central America | South America | Asia | Europe | Australia | Africa | Islands

Weather Underground

© Copyright 2017
The Weather Company, LLC